sensor_id;sensor_type;location;lat;lon;timestamp;temperature;humidity
21734;DHT22;11029;47.820;10.534;2023-04-03T00:01:04;1.70;79.40
21734;DHT22;11029;47.820;10.534;2023-04-03T00:03:31;1.70;78.80
21734;DHT22;11029;47.820;10.534;2023-04-03T00:05:58;1.70;79.30
21734;DHT22;11029;47.820;10.534;2023-04-03T00:08:25;1.70;79.90
21734;DHT22;11029;47.820;10.534;2023-04-03T00:10:51;1.70;79.40
21734;DHT22;11029;47.820;10.534;2023-04-03T00:13:18;1.60;79.20
21734;DHT22;11029;47.820;10.534;2023-04-03T00:15:45;1.70;79.60
21734;DHT22;11029;47.820;10.534;2023-04-03T00:18:12;1.60;79.10
21734;DHT22;11029;47.820;10.534;2023-04-03T00:20:39;1.50;79.70
21734;DHT22;11029;47.820;10.534;2023-04-03T00:23:06;1.60;80.40
21734;DHT22;11029;47.820;10.534;2023-04-03T00:25:32;1.50;80.10
21734;DHT22;11029;47.820;10.534;2023-04-03T00:27:59;1.40;79.90
21734;DHT22;11029;47.820;10.534;2023-04-03T00:30:26;1.30;79.40
21734;DHT22;11029;47.820;10.534;2023-04-03T00:32:53;1.30;79.80
21734;DHT22;11029;47.820;10.534;2023-04-03T00:35:21;1.30;80.10
21734;DHT22;11029;47.820;10.534;2023-04-03T00:37:51;1.30;80.00
21734;DHT22;11029;47.820;10.534;2023-04-03T00:40:19;1.30;79.70
21734;DHT22;11029;47.820;10.534;2023-04-03T00:42:47;1.20;79.40
21734;DHT22;11029;47.820;10.534;2023-04-03T00:45:29;1.20;79.70
21734;DHT22;11029;47.820;10.534;2023-04-03T00:47:56;1.20;80.00
21734;DHT22;11029;47.820;10.534;2023-04-03T00:50:23;1.10;80.00
21734;DHT22;11029;47.820;10.534;2023-04-03T00:52:50;1.10;79.50
21734;DHT22;11029;47.820;10.534;2023-04-03T00:55:17;1.10;79.80
21734;DHT22;11029;47.820;10.534;2023-04-03T00:57:44;1.10;80.00
21734;DHT22;11029;47.820;10.534;2023-04-03T01:00:15;1.10;79.80
21734;DHT22;11029;47.820;10.534;2023-04-03T01:02:43;1.10;79.90
21734;DHT22;11029;47.820;10.534;2023-04-03T01:05:13;1.00;80.10
21734;DHT22;11029;47.820;10.534;2023-04-03T01:07:42;1.10;80.30
21734;DHT22;11029;47.820;10.534;2023-04-03T01:10:11;1.10;80.20
21734;DHT22;11029;47.820;10.534;2023-04-03T01:12:42;1.10;80.80
21734;DHT22;11029;47.820;10.534;2023-04-03T01:15:22;1.10;80.10
21734;DHT22;11029;47.820;10.534;2023-04-03T01:17:54;1.10;80.10
21734;DHT22;11029;47.820;10.534;2023-04-03T01:25:33;1.20;80.30
21734;DHT22;11029;47.820;10.534;2023-04-03T01:28:00;1.20;80.00
21734;DHT22;11029;47.820;10.534;2023-04-03T01:30:36;1.20;80.00
21734;DHT22;11029;47.820;10.534;2023-04-03T01:33:05;1.30;80.20
21734;DHT22;11029;47.820;10.534;2023-04-03T01:35:32;1.30;79.90
21734;DHT22;11029;47.820;10.534;2023-04-03T01:37:59;1.30;79.90
21734;DHT22;11029;47.820;10.534;2023-04-03T01:40:26;1.40;79.90
21734;DHT22;11029;47.820;10.534;2023-04-03T01:42:53;1.40;79.70
21734;DHT22;11029;47.820;10.534;2023-04-03T01:45:19;1.40;79.80
21734;DHT22;11029;47.820;10.534;2023-04-03T01:47:46;1.50;80.00
21734;DHT22;11029;47.820;10.534;2023-04-03T01:50:13;1.50;79.40
21734;DHT22;11029;47.820;10.534;2023-04-03T01:52:40;1.50;79.80
21734;DHT22;11029;47.820;10.534;2023-04-03T01:55:07;1.50;79.40
21734;DHT22;11029;47.820;10.534;2023-04-03T01:57:34;1.50;79.50
21734;DHT22;11029;47.820;10.534;2023-04-03T02:00:01;1.50;79.60
21734;DHT22;11029;47.820;10.534;2023-04-03T02:02:38;1.40;79.30
21734;DHT22;11029;47.820;10.534;2023-04-03T02:05:06;1.30;79.80
21734;DHT22;11029;47.820;10.534;2023-04-03T02:07:33;1.20;80.30
21734;DHT22;11029;47.820;10.534;2023-04-03T02:10:00;1.20;80.40
21734;DHT22;11029;47.820;10.534;2023-04-03T02:12:27;1.30;80.90
21734;DHT22;11029;47.820;10.534;2023-04-03T02:14:54;1.40;80.70
21734;DHT22;11029;47.820;10.534;2023-04-03T02:17:20;1.40;80.70
21734;DHT22;11029;47.820;10.534;2023-04-03T02:19:47;1.50;80.30
21734;DHT22;11029;47.820;10.534;2023-04-03T02:22:14;1.50;80.90
21734;DHT22;11029;47.820;10.534;2023-04-03T02:24:41;1.50;80.80
21734;DHT22;11029;47.820;10.534;2023-04-03T02:27:08;1.50;80.40
21734;DHT22;11029;47.820;10.534;2023-04-03T02:29:34;1.40;80.40
21734;DHT22;11029;47.820;10.534;2023-04-03T02:32:01;1.30;80.70
21734;DHT22;11029;47.820;10.534;2023-04-03T02:34:30;1.30;81.20
21734;DHT22;11029;47.820;10.534;2023-04-03T02:36:59;1.30;81.50
21734;DHT22;11029;47.820;10.534;2023-04-03T02:39:25;1.20;81.80
21734;DHT22;11029;47.820;10.534;2023-04-03T02:41:53;1.10;82.40
21734;DHT22;11029;47.820;10.534;2023-04-03T02:44:23;1.00;82.40
21734;DHT22;11029;47.820;10.534;2023-04-03T02:46:51;1.00;82.70
21734;DHT22;11029;47.820;10.534;2023-04-03T02:49:18;1.10;82.90
21734;DHT22;11029;47.820;10.534;2023-04-03T02:51:45;1.10;83.20
21734;DHT22;11029;47.820;10.534;2023-04-03T02:54:12;1.20;83.40
21734;DHT22;11029;47.820;10.534;2023-04-03T02:56:43;1.20;82.80
21734;DHT22;11029;47.820;10.534;2023-04-03T02:59:10;1.10;82.70
21734;DHT22;11029;47.820;10.534;2023-04-03T03:01:39;1.10;82.80
21734;DHT22;11029;47.820;10.534;2023-04-03T03:04:05;1.00;83.00
21734;DHT22;11029;47.820;10.534;2023-04-03T03:06:32;1.00;83.60
21734;DHT22;11029;47.820;10.534;2023-04-03T03:08:59;1.00;83.80
21734;DHT22;11029;47.820;10.534;2023-04-03T03:11:26;1.00;84.10
21734;DHT22;11029;47.820;10.534;2023-04-03T03:13:52;1.10;84.10
21734;DHT22;11029;47.820;10.534;2023-04-03T03:16:19;1.10;83.60
21734;DHT22;11029;47.820;10.534;2023-04-03T03:18:46;1.20;83.20
21734;DHT22;11029;47.820;10.534;2023-04-03T03:21:13;1.20;82.90
21734;DHT22;11029;47.820;10.534;2023-04-03T03:23:40;1.20;82.80
21734;DHT22;11029;47.820;10.534;2023-04-03T03:26:09;1.20;82.20
21734;DHT22;11029;47.820;10.534;2023-04-03T03:28:38;1.10;82.30
21734;DHT22;11029;47.820;10.534;2023-04-03T03:31:06;1.00;82.90
21734;DHT22;11029;47.820;10.534;2023-04-03T03:33:35;1.10;83.00
21734;DHT22;11029;47.820;10.534;2023-04-03T03:36:02;1.00;83.30
21734;DHT22;11029;47.820;10.534;2023-04-03T03:38:29;1.00;82.40
21734;DHT22;11029;47.820;10.534;2023-04-03T03:40:57;0.90;82.80
21734;DHT22;11029;47.820;10.534;2023-04-03T03:43:24;0.80;83.10
21734;DHT22;11029;47.820;10.534;2023-04-03T03:45:53;0.90;82.80
21734;DHT22;11029;47.820;10.534;2023-04-03T03:48:21;0.80;83.20
21734;DHT22;11029;47.820;10.534;2023-04-03T03:50:49;0.80;83.20
21734;DHT22;11029;47.820;10.534;2023-04-03T03:53:17;0.70;83.40
21734;DHT22;11029;47.820;10.534;2023-04-03T03:55:45;0.70;83.80
21734;DHT22;11029;47.820;10.534;2023-04-03T03:58:11;0.70;84.00
21734;DHT22;11029;47.820;10.534;2023-04-03T04:00:38;0.60;84.50
21734;DHT22;11029;47.820;10.534;2023-04-03T04:03:05;0.60;84.70
21734;DHT22;11029;47.820;10.534;2023-04-03T04:05:32;0.50;85.00
21734;DHT22;11029;47.820;10.534;2023-04-03T04:08:00;0.50;85.40
21734;DHT22;11029;47.820;10.534;2023-04-03T04:10:27;0.50;85.50
21734;DHT22;11029;47.820;10.534;2023-04-03T04:12:55;0.50;85.50
21734;DHT22;11029;47.820;10.534;2023-04-03T04:15:26;0.60;85.00
21734;DHT22;11029;47.820;10.534;2023-04-03T04:17:54;0.60;84.80
21734;DHT22;11029;47.820;10.534;2023-04-03T04:20:22;0.60;84.70
21734;DHT22;11029;47.820;10.534;2023-04-03T04:22:49;0.50;84.50
21734;DHT22;11029;47.820;10.534;2023-04-03T04:25:17;0.60;84.70
21734;DHT22;11029;47.820;10.534;2023-04-03T04:27:44;0.60;84.50
21734;DHT22;11029;47.820;10.534;2023-04-03T04:30:13;0.60;84.60
21734;DHT22;11029;47.820;10.534;2023-04-03T04:32:41;0.60;84.70
21734;DHT22;11029;47.820;10.534;2023-04-03T04:35:08;0.60;84.20
21734;DHT22;11029;47.820;10.534;2023-04-03T04:37:39;0.50;84.40
21734;DHT22;11029;47.820;10.534;2023-04-03T04:40:07;0.50;84.90
21734;DHT22;11029;47.820;10.534;2023-04-03T04:42:34;0.50;85.00
21734;DHT22;11029;47.820;10.534;2023-04-03T04:45:00;0.50;85.20
21734;DHT22;11029;47.820;10.534;2023-04-03T04:47:29;0.50;85.20
21734;DHT22;11029;47.820;10.534;2023-04-03T04:49:56;0.50;85.10
21734;DHT22;11029;47.820;10.534;2023-04-03T04:52:23;0.60;84.80
21734;DHT22;11029;47.820;10.534;2023-04-03T04:54:50;0.50;84.70
21734;DHT22;11029;47.820;10.534;2023-04-03T04:57:17;0.50;84.90
21734;DHT22;11029;47.820;10.534;2023-04-03T04:59:44;0.50;85.20
21734;DHT22;11029;47.820;10.534;2023-04-03T05:02:11;0.60;85.10
21734;DHT22;11029;47.820;10.534;2023-04-03T05:04:39;0.50;85.10
21734;DHT22;11029;47.820;10.534;2023-04-03T05:07:12;0.50;85.10
21734;DHT22;11029;47.820;10.534;2023-04-03T05:09:39;0.50;85.30
21734;DHT22;11029;47.820;10.534;2023-04-03T05:12:09;0.50;85.20
21734;DHT22;11029;47.820;10.534;2023-04-03T05:14:41;0.60;85.20
21734;DHT22;11029;47.820;10.534;2023-04-03T05:17:09;0.50;85.30
21734;DHT22;11029;47.820;10.534;2023-04-03T05:19:39;0.50;85.20
21734;DHT22;11029;47.820;10.534;2023-04-03T05:22:08;0.50;85.40
21734;DHT22;11029;47.820;10.534;2023-04-03T05:24:35;0.50;85.20
21734;DHT22;11029;47.820;10.534;2023-04-03T05:27:03;0.50;85.00
21734;DHT22;11029;47.820;10.534;2023-04-03T05:29:33;0.50;85.50
21734;DHT22;11029;47.820;10.534;2023-04-03T05:32:00;0.50;86.10
21734;DHT22;11029;47.820;10.534;2023-04-03T05:34:27;0.50;85.60
21734;DHT22;11029;47.820;10.534;2023-04-03T05:36:55;0.50;85.90
21734;DHT22;11029;47.820;10.534;2023-04-03T05:39:23;0.60;86.00
21734;DHT22;11029;47.820;10.534;2023-04-03T05:41:50;0.60;85.80
21734;DHT22;11029;47.820;10.534;2023-04-03T05:44:17;0.70;85.90
21734;DHT22;11029;47.820;10.534;2023-04-03T05:46:45;0.70;85.60
21734;DHT22;11029;47.820;10.534;2023-04-03T05:49:13;0.80;85.50
21734;DHT22;11029;47.820;10.534;2023-04-03T05:51:40;0.80;85.10
21734;DHT22;11029;47.820;10.534;2023-04-03T05:54:25;0.80;85.00
21734;DHT22;11029;47.820;10.534;2023-04-03T05:56:59;0.90;85.10
21734;DHT22;11029;47.820;10.534;2023-04-03T05:59:27;0.80;84.60
21734;DHT22;11029;47.820;10.534;2023-04-03T06:01:56;0.80;84.40
21734;DHT22;11029;47.820;10.534;2023-04-03T06:04:24;0.70;84.60
21734;DHT22;11029;47.820;10.534;2023-04-03T06:06:56;0.70;85.30
21734;DHT22;11029;47.820;10.534;2023-04-03T06:09:27;0.70;85.30
21734;DHT22;11029;47.820;10.534;2023-04-03T06:11:56;0.70;85.60
21734;DHT22;11029;47.820;10.534;2023-04-03T06:14:26;0.70;85.30
21734;DHT22;11029;47.820;10.534;2023-04-03T06:16:53;0.80;85.50
21734;DHT22;11029;47.820;10.534;2023-04-03T06:19:20;0.90;85.10
21734;DHT22;11029;47.820;10.534;2023-04-03T06:21:51;0.90;84.70
21734;DHT22;11029;47.820;10.534;2023-04-03T06:24:18;0.90;84.90
21734;DHT22;11029;47.820;10.534;2023-04-03T06:26:46;0.90;84.60
21734;DHT22;11029;47.820;10.534;2023-04-03T06:29:13;0.90;84.60
21734;DHT22;11029;47.820;10.534;2023-04-03T06:31:39;0.90;84.80
21734;DHT22;11029;47.820;10.534;2023-04-03T06:34:06;0.90;84.70
21734;DHT22;11029;47.820;10.534;2023-04-03T06:36:35;0.80;84.80
21734;DHT22;11029;47.820;10.534;2023-04-03T06:39:02;0.80;84.60
21734;DHT22;11029;47.820;10.534;2023-04-03T06:41:29;0.80;84.90
21734;DHT22;11029;47.820;10.534;2023-04-03T06:43:57;0.80;84.90
21734;DHT22;11029;47.820;10.534;2023-04-03T06:46:26;0.70;85.20
21734;DHT22;11029;47.820;10.534;2023-04-03T06:48:53;0.70;85.30
21734;DHT22;11029;47.820;10.534;2023-04-03T06:51:28;0.70;85.60
21734;DHT22;11029;47.820;10.534;2023-04-03T06:53:57;0.80;85.30
21734;DHT22;11029;47.820;10.534;2023-04-03T06:56:25;0.80;85.20
21734;DHT22;11029;47.820;10.534;2023-04-03T06:58:53;0.80;84.80
21734;DHT22;11029;47.820;10.534;2023-04-03T07:01:26;0.70;84.90
21734;DHT22;11029;47.820;10.534;2023-04-03T07:03:55;0.70;85.40
21734;DHT22;11029;47.820;10.534;2023-04-03T07:06:22;0.70;85.60
21734;DHT22;11029;47.820;10.534;2023-04-03T07:08:48;0.80;85.40
21734;DHT22;11029;47.820;10.534;2023-04-03T07:11:16;0.80;85.50
21734;DHT22;11029;47.820;10.534;2023-04-03T07:13:43;0.80;84.90
21734;DHT22;11029;47.820;10.534;2023-04-03T07:16:10;0.70;84.80
21734;DHT22;11029;47.820;10.534;2023-04-03T07:18:37;0.80;85.20
21734;DHT22;11029;47.820;10.534;2023-04-03T07:21:04;0.90;85.00
21734;DHT22;11029;47.820;10.534;2023-04-03T07:23:31;0.90;84.70
21734;DHT22;11029;47.820;10.534;2023-04-03T07:25:58;1.00;84.60
21734;DHT22;11029;47.820;10.534;2023-04-03T07:28:25;1.00;84.20
21734;DHT22;11029;47.820;10.534;2023-04-03T07:30:54;1.00;83.60
21734;DHT22;11029;47.820;10.534;2023-04-03T07:33:25;1.00;83.70
21734;DHT22;11029;47.820;10.534;2023-04-03T07:35:52;1.00;83.30
21734;DHT22;11029;47.820;10.534;2023-04-03T07:38:19;1.00;83.30
21734;DHT22;11029;47.820;10.534;2023-04-03T07:40:47;0.90;83.50
21734;DHT22;11029;47.820;10.534;2023-04-03T07:43:15;1.00;83.60
21734;DHT22;11029;47.820;10.534;2023-04-03T07:45:42;1.10;83.30
21734;DHT22;11029;47.820;10.534;2023-04-03T07:48:11;1.10;82.90
21734;DHT22;11029;47.820;10.534;2023-04-03T07:50:40;1.00;83.10
21734;DHT22;11029;47.820;10.534;2023-04-03T07:53:07;1.10;83.00
21734;DHT22;11029;47.820;10.534;2023-04-03T07:55:34;1.10;82.70
21734;DHT22;11029;47.820;10.534;2023-04-03T07:58:04;1.20;82.80
21734;DHT22;11029;47.820;10.534;2023-04-03T08:00:31;1.30;82.40
21734;DHT22;11029;47.820;10.534;2023-04-03T08:02:58;1.30;82.20
21734;DHT22;11029;47.820;10.534;2023-04-03T08:05:24;1.20;82.30
21734;DHT22;11029;47.820;10.534;2023-04-03T08:07:51;1.20;82.70
21734;DHT22;11029;47.820;10.534;2023-04-03T08:10:18;1.30;82.50
21734;DHT22;11029;47.820;10.534;2023-04-03T08:12:47;1.30;82.20
21734;DHT22;11029;47.820;10.534;2023-04-03T08:15:13;1.30;81.70
21734;DHT22;11029;47.820;10.534;2023-04-03T08:17:40;1.30;81.40
21734;DHT22;11029;47.820;10.534;2023-04-03T08:20:07;1.30;81.40
21734;DHT22;11029;47.820;10.534;2023-04-03T08:22:34;1.40;81.60
21734;DHT22;11029;47.820;10.534;2023-04-03T08:25:01;1.50;81.30
21734;DHT22;11029;47.820;10.534;2023-04-03T08:27:28;1.60;80.40
21734;DHT22;11029;47.820;10.534;2023-04-03T08:29:56;1.60;80.00
21734;DHT22;11029;47.820;10.534;2023-04-03T08:32:23;1.60;80.20
21734;DHT22;11029;47.820;10.534;2023-04-03T08:34:50;1.70;80.00
21734;DHT22;11029;47.820;10.534;2023-04-03T08:37:17;1.80;80.30
21734;DHT22;11029;47.820;10.534;2023-04-03T08:39:44;1.80;79.80
21734;DHT22;11029;47.820;10.534;2023-04-03T08:42:25;1.70;79.00
21734;DHT22;11029;47.820;10.534;2023-04-03T08:45:06;1.90;79.70
21734;DHT22;11029;47.820;10.534;2023-04-03T08:48:05;2.00;79.60
21734;DHT22;11029;47.820;10.534;2023-04-03T08:50:38;1.90;79.60
21734;DHT22;11029;47.820;10.534;2023-04-03T08:53:14;1.90;78.80
21734;DHT22;11029;47.820;10.534;2023-04-03T08:55:46;1.90;79.20
21734;DHT22;11029;47.820;10.534;2023-04-03T08:58:16;2.00;78.80
21734;DHT22;11029;47.820;10.534;2023-04-03T09:01:00;2.10;78.80
21734;DHT22;11029;47.820;10.534;2023-04-03T09:03:30;2.30;78.30
21734;DHT22;11029;47.820;10.534;2023-04-03T09:17:03;2.60;75.40
21734;DHT22;11029;47.820;10.534;2023-04-03T09:22:01;2.80;75.20
21734;DHT22;11029;47.820;10.534;2023-04-03T09:24:31;3.20;75.20
21734;DHT22;11029;47.820;10.534;2023-04-03T09:27:08;3.60;75.50
21734;DHT22;11029;47.820;10.534;2023-04-03T09:29:42;4.10;72.90
21734;DHT22;11029;47.820;10.534;2023-04-03T09:34:47;4.10;70.30
21734;DHT22;11029;47.820;10.534;2023-04-03T09:37:40;4.00;69.80
21734;DHT22;11029;47.820;10.534;2023-04-03T09:40:51;3.90;68.40
21734;DHT22;11029;47.820;10.534;2023-04-03T09:43:01;4.00;67.80
21734;DHT22;11029;47.820;10.534;2023-04-03T09:45:32;4.00;67.70
21734;DHT22;11029;47.820;10.534;2023-04-03T09:53:37;4.20;67.90
21734;DHT22;11029;47.820;10.534;2023-04-03T09:58:46;4.40;66.30
21734;DHT22;11029;47.820;10.534;2023-04-03T10:01:28;4.50;65.80
21734;DHT22;11029;47.820;10.534;2023-04-03T10:04:10;4.50;66.00
21734;DHT22;11029;47.820;10.534;2023-04-03T10:06:48;4.20;66.00
21734;DHT22;11029;47.820;10.534;2023-04-03T10:09:20;4.00;65.40
21734;DHT22;11029;47.820;10.534;2023-04-03T10:12:09;4.00;65.70
21734;DHT22;11029;47.820;10.534;2023-04-03T10:14:58;4.00;65.80
21734;DHT22;11029;47.820;10.534;2023-04-03T10:17:51;4.00;65.10
21734;DHT22;11029;47.820;10.534;2023-04-03T10:20:33;4.10;65.40
21734;DHT22;11029;47.820;10.534;2023-04-03T10:34:43;5.00;62.80
21734;DHT22;11029;47.820;10.534;2023-04-03T10:37:50;5.30;63.30
21734;DHT22;11029;47.820;10.534;2023-04-03T10:43:21;5.90;62.50
21734;DHT22;11029;47.820;10.534;2023-04-03T10:48:59;6.00;60.80
21734;DHT22;11029;47.820;10.534;2023-04-03T10:51:41;6.10;59.80
21734;DHT22;11029;47.820;10.534;2023-04-03T10:54:23;5.90;59.60
21734;DHT22;11029;47.820;10.534;2023-04-03T10:57:02;5.70;59.40
21734;DHT22;11029;47.820;10.534;2023-04-03T11:02:27;5.50;59.20
21734;DHT22;11029;47.820;10.534;2023-04-03T11:05:02;5.50;60.10
21734;DHT22;11029;47.820;10.534;2023-04-03T11:07:39;5.50;59.70
21734;DHT22;11029;47.820;10.534;2023-04-03T11:13:01;5.50;58.70
21734;DHT22;11029;47.820;10.534;2023-04-03T11:15:30;5.50;58.30
21734;DHT22;11029;47.820;10.534;2023-04-03T11:18:08;5.60;59.70
21734;DHT22;11029;47.820;10.534;2023-04-03T11:20:38;5.80;59.50
21734;DHT22;11029;47.820;10.534;2023-04-03T11:23:26;5.70;57.70
21734;DHT22;11029;47.820;10.534;2023-04-03T11:26:15;5.30;57.40
21734;DHT22;11029;47.820;10.534;2023-04-03T11:28:43;5.30;58.20
21734;DHT22;11029;47.820;10.534;2023-04-03T11:34:17;5.10;59.60
21734;DHT22;11029;47.820;10.534;2023-04-03T11:36:49;4.90;59.50
21734;DHT22;11029;47.820;10.534;2023-04-03T11:39:25;4.70;60.80
21734;DHT22;11029;47.820;10.534;2023-04-03T11:41:54;4.50;61.00
21734;DHT22;11029;47.820;10.534;2023-04-03T11:44:38;4.30;61.80
21734;DHT22;11029;47.820;10.534;2023-04-03T11:47:10;4.20;62.60
21734;DHT22;11029;47.820;10.534;2023-04-03T11:50:02;4.10;62.90
21734;DHT22;11029;47.820;10.534;2023-04-03T12:05:55;3.80;63.10
21734;DHT22;11029;47.820;10.534;2023-04-03T12:19:30;4.20;61.60
21734;DHT22;11029;47.820;10.534;2023-04-03T12:22:11;4.30;62.30
21734;DHT22;11029;47.820;10.534;2023-04-03T12:24:40;4.30;61.00
21734;DHT22;11029;47.820;10.534;2023-04-03T12:32:51;4.00;61.30
21734;DHT22;11029;47.820;10.534;2023-04-03T12:35:57;4.00;61.10
21734;DHT22;11029;47.820;10.534;2023-04-03T12:41:32;3.90;62.70
21734;DHT22;11029;47.820;10.534;2023-04-03T12:44:44;4.00;61.90
21734;DHT22;11029;47.820;10.534;2023-04-03T12:47:29;4.20;62.60
21734;DHT22;11029;47.820;10.534;2023-04-03T12:50:00;4.30;61.20
21734;DHT22;11029;47.820;10.534;2023-04-03T12:52:33;4.30;61.50
21734;DHT22;11029;47.820;10.534;2023-04-03T12:55:03;4.40;60.60
21734;DHT22;11029;47.820;10.534;2023-04-03T12:57:33;4.40;60.60
21734;DHT22;11029;47.820;10.534;2023-04-03T13:00:00;4.50;60.00
21734;DHT22;11029;47.820;10.534;2023-04-03T13:02:45;4.40;59.90
21734;DHT22;11029;47.820;10.534;2023-04-03T13:05:18;4.40;59.80
21734;DHT22;11029;47.820;10.534;2023-04-03T13:07:52;4.30;61.40
21734;DHT22;11029;47.820;10.534;2023-04-03T13:10:21;4.30;62.10
21734;DHT22;11029;47.820;10.534;2023-04-03T13:12:51;4.20;62.10
21734;DHT22;11029;47.820;10.534;2023-04-03T13:15:27;4.20;62.40
21734;DHT22;11029;47.820;10.534;2023-04-03T13:17:55;4.10;62.20
21734;DHT22;11029;47.820;10.534;2023-04-03T13:20:27;4.10;61.90
21734;DHT22;11029;47.820;10.534;2023-04-03T13:23:02;4.10;61.80
21734;DHT22;11029;47.820;10.534;2023-04-03T13:25:33;4.10;61.50
21734;DHT22;11029;47.820;10.534;2023-04-03T13:28:03;4.00;62.80
21734;DHT22;11029;47.820;10.534;2023-04-03T13:30:40;4.20;63.20
21734;DHT22;11029;47.820;10.534;2023-04-03T13:33:23;4.20;62.80
21734;DHT22;11029;47.820;10.534;2023-04-03T13:36:06;4.20;61.20
21734;DHT22;11029;47.820;10.534;2023-04-03T13:38:34;4.10;62.40
21734;DHT22;11029;47.820;10.534;2023-04-03T13:41:25;4.20;62.50
21734;DHT22;11029;47.820;10.534;2023-04-03T13:43:52;4.20;62.20
21734;DHT22;11029;47.820;10.534;2023-04-03T13:46:27;4.30;62.20
21734;DHT22;11029;47.820;10.534;2023-04-03T13:48:56;4.20;61.30
21734;DHT22;11029;47.820;10.534;2023-04-03T13:51:28;4.00;61.10
21734;DHT22;11029;47.820;10.534;2023-04-03T13:53:57;3.90;61.20
21734;DHT22;11029;47.820;10.534;2023-04-03T13:56:33;3.80;60.70
21734;DHT22;11029;47.820;10.534;2023-04-03T14:01:42;3.70;61.40
21734;DHT22;11029;47.820;10.534;2023-04-03T14:04:22;3.70;61.30
21734;DHT22;11029;47.820;10.534;2023-04-03T14:06:49;3.50;60.70
21734;DHT22;11029;47.820;10.534;2023-04-03T14:09:19;3.40;60.60
21734;DHT22;11029;47.820;10.534;2023-04-03T14:11:47;3.50;61.40
21734;DHT22;11029;47.820;10.534;2023-04-03T14:14:18;3.50;61.50
21734;DHT22;11029;47.820;10.534;2023-04-03T14:16:49;3.50;61.50
21734;DHT22;11029;47.820;10.534;2023-04-03T14:19:29;3.50;61.30
21734;DHT22;11029;47.820;10.534;2023-04-03T14:21:57;3.40;61.70
21734;DHT22;11029;47.820;10.534;2023-04-03T14:24:24;3.30;61.10
21734;DHT22;11029;47.820;10.534;2023-04-03T14:26:52;3.30;62.20
21734;DHT22;11029;47.820;10.534;2023-04-03T14:29:22;3.30;62.80
21734;DHT22;11029;47.820;10.534;2023-04-03T14:31:50;3.40;62.80
21734;DHT22;11029;47.820;10.534;2023-04-03T14:34:29;3.40;63.30
21734;DHT22;11029;47.820;10.534;2023-04-03T14:36:56;3.30;65.10
21734;DHT22;11029;47.820;10.534;2023-04-03T14:39:23;3.00;66.30
21734;DHT22;11029;47.820;10.534;2023-04-03T14:41:50;2.90;67.10
21734;DHT22;11029;47.820;10.534;2023-04-03T14:44:16;3.00;66.90
21734;DHT22;11029;47.820;10.534;2023-04-03T14:46:44;3.00;67.40
21734;DHT22;11029;47.820;10.534;2023-04-03T14:49:27;3.00;66.00
21734;DHT22;11029;47.820;10.534;2023-04-03T14:51:57;3.00;64.50
21734;DHT22;11029;47.820;10.534;2023-04-03T14:54:24;3.10;64.40
21734;DHT22;11029;47.820;10.534;2023-04-03T14:56:57;3.20;63.80
21734;DHT22;11029;47.820;10.534;2023-04-03T14:59:25;3.20;63.20
21734;DHT22;11029;47.820;10.534;2023-04-03T15:01:52;3.30;63.70
21734;DHT22;11029;47.820;10.534;2023-04-03T15:04:20;3.30;63.00
21734;DHT22;11029;47.820;10.534;2023-04-03T15:06:48;3.40;61.20
21734;DHT22;11029;47.820;10.534;2023-04-03T15:09:21;3.50;61.40
21734;DHT22;11029;47.820;10.534;2023-04-03T15:11:49;3.50;61.10
21734;DHT22;11029;47.820;10.534;2023-04-03T15:14:17;3.60;60.80
21734;DHT22;11029;47.820;10.534;2023-04-03T15:17:02;3.70;60.80
21734;DHT22;11029;47.820;10.534;2023-04-03T15:19:38;3.80;60.60
21734;DHT22;11029;47.820;10.534;2023-04-03T15:22:05;3.70;59.90
21734;DHT22;11029;47.820;10.534;2023-04-03T15:24:32;3.60;60.00
21734;DHT22;11029;47.820;10.534;2023-04-03T15:27:00;3.60;60.20
21734;DHT22;11029;47.820;10.534;2023-04-03T15:29:27;3.60;61.10
21734;DHT22;11029;47.820;10.534;2023-04-03T15:31:54;3.60;60.80
21734;DHT22;11029;47.820;10.534;2023-04-03T15:34:21;3.60;60.80
21734;DHT22;11029;47.820;10.534;2023-04-03T15:36:49;3.60;61.50
21734;DHT22;11029;47.820;10.534;2023-04-03T15:39:19;3.70;61.40
21734;DHT22;11029;47.820;10.534;2023-04-03T15:41:47;3.60;61.00
21734;DHT22;11029;47.820;10.534;2023-04-03T15:44:14;3.70;60.90
21734;DHT22;11029;47.820;10.534;2023-04-03T15:46:45;3.70;60.10
21734;DHT22;11029;47.820;10.534;2023-04-03T15:49:12;3.70;59.80
21734;DHT22;11029;47.820;10.534;2023-04-03T15:51:39;3.70;59.00
21734;DHT22;11029;47.820;10.534;2023-04-03T15:54:06;3.70;58.30
21734;DHT22;11029;47.820;10.534;2023-04-03T15:56:33;3.70;58.80
21734;DHT22;11029;47.820;10.534;2023-04-03T15:58:59;3.70;58.70
21734;DHT22;11029;47.820;10.534;2023-04-03T16:01:26;3.70;58.20
21734;DHT22;11029;47.820;10.534;2023-04-03T16:03:53;3.70;58.70
21734;DHT22;11029;47.820;10.534;2023-04-03T16:06:20;3.80;58.80
21734;DHT22;11029;47.820;10.534;2023-04-03T16:08:47;3.80;58.80
21734;DHT22;11029;47.820;10.534;2023-04-03T16:11:15;3.80;58.60
21734;DHT22;11029;47.820;10.534;2023-04-03T16:13:42;3.80;55.90
21734;DHT22;11029;47.820;10.534;2023-04-03T16:16:09;3.80;55.90
21734;DHT22;11029;47.820;10.534;2023-04-03T16:18:36;3.70;55.10
21734;DHT22;11029;47.820;10.534;2023-04-03T16:21:03;3.70;55.30
21734;DHT22;11029;47.820;10.534;2023-04-03T16:23:30;3.60;56.10
21734;DHT22;11029;47.820;10.534;2023-04-03T16:25:56;3.60;55.50
21734;DHT22;11029;47.820;10.534;2023-04-03T16:28:23;3.60;56.30
21734;DHT22;11029;47.820;10.534;2023-04-03T16:30:50;3.50;56.90
21734;DHT22;11029;47.820;10.534;2023-04-03T16:33:17;3.60;57.30
21734;DHT22;11029;47.820;10.534;2023-04-03T16:35:49;3.50;56.80
21734;DHT22;11029;47.820;10.534;2023-04-03T16:38:16;3.50;55.70
21734;DHT22;11029;47.820;10.534;2023-04-03T16:40:42;4.10;55.40
21734;DHT22;11029;47.820;10.534;2023-04-03T16:43:09;5.10;52.50
21734;DHT22;11029;47.820;10.534;2023-04-03T16:45:37;6.00;49.90
21734;DHT22;11029;47.820;10.534;2023-04-03T16:48:04;7.00;47.50
21734;DHT22;11029;47.820;10.534;2023-04-03T16:50:32;7.20;45.80
21734;DHT22;11029;47.820;10.534;2023-04-03T16:52:59;7.30;45.10
21734;DHT22;11029;47.820;10.534;2023-04-03T16:55:26;6.90;45.20
21734;DHT22;11029;47.820;10.534;2023-04-03T16:57:52;5.80;46.80
21734;DHT22;11029;47.820;10.534;2023-04-03T17:00:21;5.00;48.90
21734;DHT22;11029;47.820;10.534;2023-04-03T17:02:48;4.50;50.30
21734;DHT22;11029;47.820;10.534;2023-04-03T17:05:14;4.10;51.40
21734;DHT22;11029;47.820;10.534;2023-04-03T17:07:41;4.00;52.50
21734;DHT22;11029;47.820;10.534;2023-04-03T17:10:08;3.90;52.40
21734;DHT22;11029;47.820;10.534;2023-04-03T17:12:35;3.70;52.80
21734;DHT22;11029;47.820;10.534;2023-04-03T17:15:02;3.50;53.40
21734;DHT22;11029;47.820;10.534;2023-04-03T17:17:29;3.50;53.70
21734;DHT22;11029;47.820;10.534;2023-04-03T17:19:57;3.50;54.10